createdAt,value
2018-12-22T00:07:37.551Z,22.6
2018-12-22T00:17:53.509Z,22.6
2018-12-22T00:28:09.634Z,22.6
2018-12-22T00:33:17.786Z,22.5
2018-12-22T00:38:26.308Z,22.6
2018-12-22T00:43:35.199Z,22.5
2018-12-22T00:48:43.801Z,22.5
2018-12-22T00:53:52.649Z,22.5
2018-12-22T00:59:01.018Z,22.5
2018-12-22T01:04:09.406Z,22.6
2018-12-22T01:09:17.611Z,22.5
2018-12-22T01:14:25.978Z,22.5
2018-12-22T01:19:34.394Z,22.5
2018-12-22T01:24:43.283Z,22.5
2018-12-22T01:29:51.889Z,22.5
2018-12-22T01:35:00.638Z,22.5
2018-12-22T01:40:09.557Z,22.5
2018-12-22T01:45:17.762Z,22.4
2018-12-22T01:50:25.949Z,22.4
2018-12-22T01:55:34.769Z,22.4
2018-12-22T02:00:43.254Z,22.4
2018-12-22T02:05:52.228Z,22.4
2018-12-22T02:11:00.732Z,22.4
2018-12-22T02:16:09.316Z,22.4
2018-12-22T02:21:18.369Z,22.4
2018-12-22T02:26:26.685Z,22.4
2018-12-22T02:31:35.560Z,22.3
2018-12-22T02:36:44.467Z,22.3
2018-12-22T02:41:53.337Z,22.3
2018-12-22T02:47:02.534Z,22.3
2018-12-22T02:52:11.143Z,22.3
2018-12-22T02:57:20.109Z,22.3
2018-12-22T03:02:28.611Z,22.3
2018-12-22T03:07:36.660Z,22.3
2018-12-22T03:17:52.690Z,22.3
2018-12-22T03:23:01.851Z,22.3
2018-12-22T03:28:10.069Z,22.2
2018-12-22T03:33:18.723Z,22.2
2018-12-22T03:38:27.340Z,22.2
2018-12-22T03:43:36.086Z,22.3
2018-12-22T03:48:44.847Z,22.2
2018-12-22T03:53:53.035Z,22.2
2018-12-22T03:59:01.067Z,22.2
2018-12-22T04:04:09.955Z,22.2
2018-12-22T04:09:18.709Z,22.1
2018-12-22T04:14:27.408Z,22.1
2018-12-22T04:19:35.556Z,22.1
2018-12-22T04:24:44.582Z,22.1
2018-12-22T04:29:52.609Z,22.1
2018-12-22T04:35:01.500Z,22.1
2018-12-22T04:40:02.288Z,22.2
2018-12-22T04:50:17.526Z,22.2
2018-12-22T04:55:25.860Z,22.1
2018-12-22T06:48:01.122Z,23.2
2018-12-22T06:52:49.502Z,23.2
2018-12-22T06:57:58.156Z,23.2
2018-12-22T07:03:06.482Z,23.2
2018-12-22T07:08:15.581Z,23.2
2018-12-22T07:13:24.358Z,23.2
2018-12-22T07:18:33.053Z,23.3
2018-12-22T07:23:41.281Z,23.2
2018-12-22T07:28:49.747Z,23.2
2018-12-22T07:33:58.531Z,23.3
2018-12-22T07:44:14.291Z,23.4
2018-12-22T07:49:23.073Z,23.5
2018-12-22T07:54:31.274Z,23.5
2018-12-22T07:59:39.736Z,23.4
2018-12-22T08:04:48.499Z,23.4
2018-12-22T08:09:57.176Z,23.4
2018-12-22T08:15:05.817Z,23.6
2018-12-22T08:20:14.785Z,23.7
2018-12-22T08:25:23.608Z,23.8
2018-12-22T08:30:32.663Z,23.9
2018-12-22T08:35:41.127Z,23.9
2018-12-22T08:40:49.300Z,24
2018-12-22T08:45:58.107Z,24
2018-12-22T08:51:07.478Z,24.1
2018-12-22T08:56:16.052Z,24.1
2018-12-22T09:01:24.128Z,24.1
2018-12-22T09:16:47.390Z,24
2018-12-22T09:21:55.597Z,24
2018-12-22T09:27:03.901Z,24
2018-12-22T09:32:13.071Z,24
2018-12-22T09:37:22.303Z,23.9
2018-12-22T09:42:30.865Z,23.9
2018-12-22T09:47:39.546Z,23.9
2018-12-22T09:52:47.788Z,23.8
2018-12-22T09:57:55.886Z,23.9
2018-12-22T10:03:04.617Z,23.9
2018-12-22T10:08:13.224Z,23.8
2018-12-22T10:13:22.876Z,23.8
2018-12-22T10:18:32.060Z,23.8
2018-12-22T10:28:48.121Z,23.8
2018-12-22T10:33:56.388Z,23.9
2018-12-22T10:39:04.565Z,23.7
2018-12-22T10:44:12.663Z,23.7
2018-12-22T10:49:20.986Z,23.7
2018-12-22T10:59:36.680Z,23.5
2018-12-22T11:04:44.980Z,23.5
2018-12-22T11:09:53.242Z,23.4
2018-12-22T11:15:02.427Z,22.6
2018-12-22T11:20:11.298Z,21.2
2018-12-22T11:25:19.708Z,21.5
2018-12-22T11:30:28.703Z,21.4
2018-12-22T11:40:44.254Z,22.4
2018-12-22T11:45:52.887Z,22.6
2018-12-22T11:51:01.068Z,22.8
2018-12-22T11:56:09.181Z,22.9
2018-12-22T12:01:17.977Z,23.1
2018-12-22T12:06:26.688Z,23.1
2018-12-22T12:11:35.756Z,23.1
2018-12-22T12:16:44.976Z,23.1
2018-12-22T12:21:54.624Z,23.2
2018-12-22T12:27:03.414Z,23.1
2018-12-22T12:32:12.262Z,23.1
2018-12-22T12:37:20.711Z,23.2
2018-12-22T12:42:29.663Z,23.2
2018-12-22T12:47:37.872Z,23.2
2018-12-22T12:52:46.469Z,23.1
2018-12-22T12:57:55.051Z,23.1
2018-12-22T13:03:03.827Z,23.1
2018-12-22T13:08:12.216Z,23.1
2018-12-22T13:13:21.465Z,23.1
2018-12-22T13:18:30.070Z,23.1
2018-12-22T13:28:45.807Z,23.2
2018-12-22T13:33:54.760Z,23.2
2018-12-22T13:39:03.138Z,23.2
2018-12-22T13:44:11.888Z,23.1
2018-12-22T13:49:22.069Z,23.1
2018-12-22T13:54:31.188Z,23.1
2018-12-22T13:59:39.730Z,23.1
2018-12-22T14:04:48.362Z,23.1
2018-12-22T14:09:57.354Z,23.2
2018-12-22T14:20:13.065Z,23.5
2018-12-22T14:25:21.968Z,23.5
2018-12-22T14:30:31.324Z,23.5
2018-12-22T14:35:39.564Z,23.4
2018-12-22T14:40:48.623Z,23.5
2018-12-22T14:45:57.541Z,23.5
2018-12-22T14:51:06.119Z,23.5
2018-12-22T15:01:21.456Z,23.5
2018-12-22T15:06:30.055Z,23.5
2018-12-22T15:11:39.096Z,23.5
2018-12-22T15:16:50.064Z,23.4
2018-12-22T15:21:48.284Z,23.5
2018-12-22T15:26:56.848Z,23.5
2018-12-22T15:32:05.895Z,23.5
2018-12-22T15:37:15.119Z,23.5
2018-12-22T15:42:23.552Z,23.5
2018-12-22T15:47:32.842Z,23.5
2018-12-22T15:52:41.471Z,23.6
2018-12-22T15:57:50.552Z,23.6
2018-12-22T16:02:59.884Z,23.6
2018-12-22T16:08:08.805Z,23.7
2018-12-22T16:13:17.016Z,23.6
2018-12-22T16:18:25.495Z,23.5
2018-12-22T16:23:33.921Z,23.5
2018-12-22T16:33:49.733Z,23.4
2018-12-22T16:38:58.934Z,23.3
2018-12-22T16:44:07.058Z,23.3
2018-12-22T16:49:15.954Z,23.2
2018-12-22T16:54:24.775Z,23.2
2018-12-22T17:04:39.854Z,23.2
2018-12-22T17:09:48.700Z,23.1
2018-12-22T17:14:57.666Z,23.1
2018-12-22T17:20:06.676Z,23.1
2018-12-22T17:25:15.284Z,23
2018-12-22T17:30:24.355Z,23
2018-12-22T17:35:34.165Z,23
2018-12-22T17:40:43.193Z,23
2018-12-22T17:45:51.833Z,23
2018-12-22T17:51:00.379Z,23.1
2018-12-22T17:56:09.015Z,23.1
2018-12-22T18:01:17.848Z,23.3
2018-12-22T18:06:26.081Z,23.3
2018-12-22T18:11:34.516Z,23.3
2018-12-22T18:16:42.711Z,23.3
2018-12-22T18:26:59.407Z,23.3
2018-12-22T18:32:07.595Z,23.3
2018-12-22T18:37:15.662Z,23.4
2018-12-22T18:42:24.100Z,23.4
2018-12-22T18:47:32.706Z,23.4
2018-12-22T18:52:41.002Z,23.3
2018-12-22T18:57:49.246Z,21.8
2018-12-22T19:02:57.690Z,19
2018-12-22T19:13:13.882Z,20.7
2018-12-22T19:18:23.620Z,21.4
2018-12-22T19:23:32.465Z,21.9
2018-12-22T19:28:40.629Z,22.2
2018-12-22T19:33:55.505Z,22.4
2018-12-22T19:38:54.101Z,22.6
2018-12-22T19:44:02.867Z,22.8
2018-12-22T19:49:10.967Z,22.9
2018-12-22T19:54:19.062Z,23.1
2018-12-22T19:59:27.266Z,23.1
2018-12-22T20:04:35.869Z,23.2
2018-12-22T20:14:51.804Z,23.3
2018-12-22T20:20:00.088Z,23.4
2018-12-22T20:30:16.182Z,23.6
2018-12-22T20:35:25.074Z,23.7
2018-12-22T20:40:33.478Z,23.8
2018-12-22T20:45:42.697Z,23.9
2018-12-22T20:50:51.130Z,24
2018-12-22T20:55:59.368Z,24
2018-12-22T21:01:07.677Z,24.1
2018-12-22T21:06:16.144Z,24.1
2018-12-22T21:11:25.071Z,24.1
2018-12-22T21:16:33.287Z,24.2
2018-12-22T21:27:25.502Z,24.2
2018-12-22T21:32:24.246Z,24
2018-12-22T21:37:33.460Z,23.9
2018-12-22T21:42:41.862Z,23.8
2018-12-22T21:47:50.366Z,23.8
2018-12-22T21:52:59.182Z,23.8
2018-12-22T21:58:07.772Z,23.8
2018-12-22T22:03:16.839Z,23.8
2018-12-22T22:08:25.610Z,23.7
2018-12-22T22:13:33.839Z,23.7
2018-12-22T22:18:42.749Z,23.6
2018-12-22T22:23:51.805Z,23.6
2018-12-22T22:29:00.677Z,23.5
2018-12-22T22:34:09.582Z,23.4
2018-12-22T22:39:18.015Z,23.4
2018-12-22T22:44:26.160Z,23.4
2018-12-22T22:54:42.158Z,23.3
2018-12-22T22:59:51.099Z,23.3
2018-12-22T23:04:59.875Z,23.2
2018-12-22T23:10:08.579Z,23.2
2018-12-22T23:15:17.057Z,23.2
2018-12-22T23:25:33.269Z,23.1
2018-12-22T23:30:42.347Z,23.1
2018-12-22T23:35:50.509Z,23.1
2018-12-22T23:40:58.924Z,23.1
2018-12-22T23:46:07.692Z,23
2018-12-22T23:51:16.407Z,23
2018-12-22T23:56:24.642Z,23
